createdAt,value
2018-12-22T00:00:18.322Z,21.5
2018-12-22T00:01:07.557Z,21.5
2018-12-22T00:01:59.241Z,21.5
2018-12-22T00:02:48.524Z,21.5
2018-12-22T00:03:38.057Z,21.5
2018-12-22T00:04:28.349Z,21.4
2018-12-22T00:05:18.133Z,21.5
2018-12-22T00:06:07.934Z,21.4
2018-12-22T00:06:58.557Z,21.4
2018-12-22T00:07:49.227Z,21.4
2018-12-22T00:08:38.064Z,21.4
2018-12-22T00:09:28.422Z,21.4
2018-12-22T00:10:17.712Z,21.4
2018-12-22T00:11:07.489Z,21.4
2018-12-22T00:11:58.236Z,21.4
2018-12-22T00:12:48.897Z,21.4
2018-12-22T00:13:39.002Z,21.4
2018-12-22T00:14:29.321Z,21.4
2018-12-22T00:32:40.757Z,21.2
2018-12-22T00:33:31.387Z,21.3
2018-12-22T00:34:21.953Z,21.2
2018-12-22T00:35:11.987Z,21.2
2018-12-22T00:36:01.272Z,21.2
2018-12-22T00:36:51.810Z,21.2
2018-12-22T00:37:42.130Z,21.2
2018-12-22T00:38:31.970Z,21.2
2018-12-22T00:39:21.699Z,21.2
2018-12-22T00:40:11.495Z,21.2
2018-12-22T00:41:01.550Z,21.2
2018-12-22T00:41:51.358Z,21.2
2018-12-22T00:42:42.337Z,21.2
2018-12-22T00:44:21.783Z,21.2
2018-12-22T00:46:52.230Z,21.2
2018-12-22T00:54:24.754Z,21.1
2018-12-22T00:56:52.920Z,21.1
2018-12-22T00:59:22.593Z,21.1
2018-12-22T01:00:14.713Z,21.1
2018-12-22T01:01:02.828Z,21.1
2018-12-22T01:01:51.748Z,21.1
2018-12-22T01:02:43.786Z,21.1
2018-12-22T01:03:33.642Z,21.1
2018-12-22T01:04:23.755Z,21.1
2018-12-22T01:05:12.748Z,21.1
2018-12-22T01:06:03.280Z,21.1
2018-12-22T01:06:55.661Z,21.1
2018-12-22T01:07:43.649Z,21
2018-12-22T01:08:33.998Z,21.1
2018-12-22T01:09:23.788Z,21
2018-12-22T01:10:14.373Z,21
2018-12-22T01:11:04.170Z,21
2018-12-22T01:11:54.254Z,21
2018-12-22T01:12:44.268Z,21
2018-12-22T01:13:34.055Z,21
2018-12-22T01:14:24.138Z,21
2018-12-22T01:15:14.458Z,21
2018-12-22T01:16:04.778Z,21
2018-12-22T01:16:53.758Z,20.9
2018-12-22T01:17:44.404Z,20.9
2018-12-22T01:18:34.135Z,20.9
2018-12-22T01:19:24.225Z,20.9
2018-12-22T01:20:14.220Z,20.9
2018-12-22T01:21:04.579Z,20.9
2018-12-22T01:21:55.175Z,20.9
2018-12-22T01:22:44.122Z,20.9
2018-12-22T01:23:34.729Z,20.9
2018-12-22T01:24:25.450Z,20.9
2018-12-22T01:25:14.285Z,20.9
2018-12-22T01:26:04.879Z,20.9
2018-12-22T01:26:55.225Z,20.9
2018-12-22T01:27:45.594Z,20.9
2018-12-22T01:28:43.868Z,20.8
2018-12-22T01:29:24.607Z,21.3
2018-12-22T01:30:14.946Z,21.9
2018-12-22T01:31:05.573Z,22.3
2018-12-22T01:31:54.870Z,22.6
2018-12-22T01:32:46.206Z,22.8
2018-12-22T01:33:35.704Z,22.9
2018-12-22T01:34:25.197Z,23.1
2018-12-22T01:35:16.339Z,23.1
2018-12-22T01:36:05.590Z,23.3
2018-12-22T01:36:55.655Z,23.4
2018-12-22T01:37:45.202Z,23.6
2018-12-22T01:38:35.457Z,23.8
2018-12-22T01:39:25.277Z,23.9
2018-12-22T01:40:16.427Z,24.1
2018-12-22T01:41:06.449Z,24.3
2018-12-22T01:41:55.720Z,24.4
2018-12-22T01:42:46.347Z,24.5
2018-12-22T01:43:36.727Z,24.6
2018-12-22T01:44:26.146Z,24.7
2018-12-22T01:45:16.217Z,24.8
2018-12-22T01:46:05.895Z,24.8
2018-12-22T01:46:55.491Z,24.8
2018-12-22T01:47:46.653Z,24.8
2018-12-22T01:48:36.269Z,24.9
2018-12-22T01:49:28.542Z,24.9
2018-12-22T01:50:16.591Z,25
2018-12-22T01:51:06.767Z,25
2018-12-22T01:51:56.869Z,25
2018-12-22T01:52:46.497Z,24.9
2018-12-22T01:53:36.572Z,25
2018-12-22T01:54:26.552Z,25.1
2018-12-22T01:55:16.884Z,25.3
2018-12-22T01:56:06.926Z,25.3
2018-12-22T01:56:57.271Z,25.4
2018-12-22T01:57:46.486Z,25.6
2018-12-22T01:58:37.098Z,25.6
2018-12-22T01:59:27.206Z,25.7
2018-12-22T02:00:17.221Z,25.8
2018-12-22T02:01:07.018Z,25.8
2018-12-22T02:01:56.800Z,25.8
2018-12-22T02:02:47.403Z,25.8
2018-12-22T02:03:37.698Z,25.9
2018-12-22T02:04:27.218Z,25.9
2018-12-22T02:05:17.845Z,25.9
2018-12-22T02:06:07.901Z,25.9
2018-12-22T02:06:57.950Z,25.9
2018-12-22T02:07:47.725Z,26
2018-12-22T02:08:36.961Z,26.1
2018-12-22T02:09:27.683Z,26.1
2018-12-22T02:10:18.264Z,26.2
2018-12-22T02:11:07.985Z,26.2
2018-12-22T02:11:58.005Z,26.3
2018-12-22T02:12:47.787Z,26.4
2018-12-22T02:13:38.380Z,26.4
2018-12-22T02:14:28.745Z,26.5
2018-12-22T02:15:17.688Z,26.5
2018-12-22T02:16:08.015Z,26.6
2018-12-22T02:16:58.314Z,26.6
2018-12-22T02:17:48.962Z,26.6
2018-12-22T02:18:38.695Z,26.7
2018-12-22T02:19:28.550Z,26.8
2018-12-22T02:20:18.032Z,26.8
2018-12-22T02:21:08.737Z,26.8
2018-12-22T02:21:58.410Z,26.9
2018-12-22T02:22:48.747Z,26.9
2018-12-22T02:23:39.145Z,26.9
2018-12-22T02:24:28.297Z,27
2018-12-22T02:25:18.637Z,27.1
2018-12-22T02:26:08.148Z,27.1
2018-12-22T02:26:58.554Z,27.2
2018-12-22T02:27:49.366Z,27.2
2018-12-22T02:28:38.872Z,27.3
2018-12-22T02:29:30.089Z,27.3
2018-12-22T02:30:18.538Z,27.3
2018-12-22T02:31:09.250Z,27.3
2018-12-22T02:31:59.432Z,27.4
2018-12-22T02:32:49.855Z,27.4
2018-12-22T02:33:39.914Z,27.5
2018-12-22T02:34:29.369Z,27.5
2018-12-22T02:35:19.875Z,27.6
2018-12-22T02:36:09.556Z,27.6
2018-12-22T02:37:00.004Z,27.6
2018-12-22T02:37:49.598Z,27.6
2018-12-22T02:38:40.206Z,27.6
2018-12-22T02:39:30.276Z,27.7
2018-12-22T02:40:20.116Z,27.8
2018-12-22T02:42:00.316Z,27.9
2018-12-22T02:42:50.409Z,27.9
2018-12-22T02:43:40.168Z,27.9
2018-12-22T02:44:30.509Z,28
2018-12-22T02:45:20.306Z,28
2018-12-22T02:46:10.374Z,28
2018-12-22T02:47:00.106Z,28.1
2018-12-22T02:47:50.836Z,28.1
2018-12-22T02:48:40.119Z,28.2
2018-12-22T02:49:30.106Z,28.3
2018-12-22T02:50:20.525Z,28.3
2018-12-22T02:51:10.129Z,28.3
2018-12-22T02:52:00.798Z,28.3
2018-12-22T02:52:51.085Z,28.3
2018-12-22T02:53:41.523Z,28.4
2018-12-22T02:54:31.191Z,28.4
2018-12-22T02:55:20.965Z,28.4
2018-12-22T02:56:10.885Z,28.4
2018-12-22T02:57:01.666Z,28.5
2018-12-22T02:57:50.861Z,28.6
2018-12-22T02:58:40.804Z,28.6
2018-12-22T02:59:31.537Z,28.6
2018-12-22T03:00:20.473Z,28.6
2018-12-22T03:01:10.822Z,28.6
2018-12-22T03:02:01.435Z,28.6
2018-12-22T03:02:51.520Z,28.7
2018-12-22T03:03:41.540Z,28.8
2018-12-22T03:04:31.110Z,28.8
2018-12-22T03:05:21.357Z,28.9
2018-12-22T03:06:12.009Z,28.9
2018-12-22T03:07:01.949Z,28.9
2018-12-22T03:07:51.808Z,28.9
2018-12-22T03:08:42.263Z,28.9
2018-12-22T03:09:32.307Z,28.9
2018-12-22T03:10:22.225Z,28.9
2018-12-22T03:11:12.166Z,29
2018-12-22T03:12:02.635Z,29
2018-12-22T03:12:52.210Z,29.1
2018-12-22T03:13:41.925Z,29.1
2018-12-22T03:14:32.310Z,29.2
2018-12-22T03:15:22.148Z,29.1
2018-12-22T03:16:11.771Z,29.2
2018-12-22T03:17:02.072Z,29.2
2018-12-22T03:17:52.574Z,29.2
2018-12-22T03:18:42.090Z,29.2
2018-12-22T03:19:32.687Z,29.3
2018-12-22T03:20:22.265Z,29.3
2018-12-22T03:21:11.694Z,29.3
2018-12-22T03:22:01.617Z,29.4
2018-12-22T03:22:52.167Z,29.4
2018-12-22T03:23:42.407Z,29.4
2018-12-22T03:24:32.301Z,29.4
2018-12-22T03:25:22.593Z,29.4
2018-12-22T03:26:13.198Z,29.5
2018-12-22T03:27:03.217Z,29.5
2018-12-22T03:27:53.992Z,29.5
2018-12-22T03:28:43.273Z,29.6
2018-12-22T03:29:33.737Z,29.6
2018-12-22T03:30:23.764Z,29.7
2018-12-22T03:31:13.823Z,29.7
2018-12-22T03:32:04.247Z,29.7
2018-12-22T03:32:53.462Z,29.8
2018-12-22T03:33:43.669Z,29.8
2018-12-22T03:34:33.164Z,29.8
2018-12-22T03:35:23.795Z,29.8
2018-12-22T03:36:14.358Z,29.9
2018-12-22T03:37:04.051Z,29.9
2018-12-22T03:37:54.828Z,29.9
2018-12-22T03:38:43.688Z,29.9
2018-12-22T03:39:33.682Z,30
2018-12-22T03:40:23.745Z,30
2018-12-22T03:41:14.730Z,30.1
2018-12-22T03:42:04.451Z,30.1
2018-12-22T03:42:53.953Z,30.1
2018-12-22T03:43:43.420Z,30.1
2018-12-22T03:44:32.983Z,30.1
2018-12-22T03:45:24.531Z,30.1
2018-12-22T03:46:14.268Z,30.1
2018-12-22T03:47:05.031Z,30.2
2018-12-22T03:47:54.280Z,30.3
2018-12-22T03:48:44.125Z,30.3
2018-12-22T03:49:35.238Z,30.3
2018-12-22T03:50:24.945Z,30.3
2018-12-22T03:51:14.732Z,30.3
2018-12-22T03:52:04.285Z,30.3
2018-12-22T03:52:55.258Z,30.3
2018-12-22T03:53:45.192Z,30.3
2018-12-22T03:54:35.033Z,30.4
2018-12-22T03:55:24.547Z,30.4
2018-12-22T03:56:15.082Z,30.4
2018-12-22T03:57:05.665Z,30.4
2018-12-22T03:57:54.882Z,30.4
2018-12-22T03:58:44.423Z,30.5
2018-12-22T03:59:35.587Z,30.5
2018-12-22T04:00:24.528Z,30.5
2018-12-22T04:01:16.265Z,30.5
2018-12-22T04:02:06.021Z,30.5
2018-12-22T04:02:55.369Z,30.5
2018-12-22T04:03:45.733Z,30.5
2018-12-22T04:04:36.325Z,30.6
2018-12-22T04:05:25.559Z,30.6
2018-12-22T04:06:15.930Z,30.6
2018-12-22T04:07:05.036Z,30.6
2018-12-22T04:07:55.867Z,30.6
2018-12-22T04:08:45.769Z,30.7
2018-12-22T04:09:35.742Z,30.7
2018-12-22T04:10:26.103Z,30.8
2018-12-22T04:11:16.100Z,30.8
2018-12-22T04:12:06.293Z,30.8
2018-12-22T04:12:55.443Z,30.8
2018-12-22T04:13:47.252Z,30.8
2018-12-22T04:14:36.254Z,30.8
2018-12-22T04:15:25.818Z,30.8
2018-12-22T04:16:15.598Z,30.8
2018-12-22T04:17:05.690Z,30.8
2018-12-22T04:17:56.328Z,30.9
2018-12-22T04:18:46.629Z,30.9
2018-12-22T04:19:35.395Z,30.9
2018-12-22T04:20:26.751Z,30.9
2018-12-22T04:21:17.115Z,30.9
2018-12-22T04:22:05.940Z,30.9
2018-12-22T04:22:56.763Z,31
2018-12-22T04:23:47.238Z,31
2018-12-22T04:24:37.346Z,31
2018-12-22T04:25:27.674Z,31
2018-12-22T04:26:15.760Z,31
2018-12-22T04:27:06.923Z,31
2018-12-22T04:27:57.800Z,31
2018-12-22T04:28:47.571Z,31.1
2018-12-22T04:29:41.324Z,31.1
2018-12-22T04:30:27.459Z,31.1
2018-12-22T04:31:17.454Z,31.1
2018-12-22T04:32:07.824Z,31.1
2018-12-22T04:32:56.999Z,31.2
2018-12-22T04:33:47.649Z,31.2
2018-12-22T04:34:37.458Z,31.2
2018-12-22T04:35:27.913Z,31.2
2018-12-22T04:36:17.194Z,31.2
2018-12-22T04:37:07.656Z,31.2
2018-12-22T04:37:58.192Z,31.2
2018-12-22T04:38:48.212Z,31.3
2018-12-22T04:39:37.479Z,31.3
2018-12-22T04:40:27.828Z,31.3
2018-12-22T04:41:17.358Z,31.3
2018-12-22T04:42:08.940Z,31.3
2018-12-22T04:42:58.268Z,31.4
2018-12-22T04:43:48.358Z,31.3
2018-12-22T04:44:38.055Z,31.4
2018-12-22T05:01:58.459Z,30.9
2018-12-22T05:02:48.214Z,30.9
2018-12-22T05:03:38.357Z,30.8
2018-12-22T05:04:28.851Z,30.8
2018-12-22T05:05:18.701Z,30.7
2018-12-22T05:06:09.273Z,30.6
2018-12-22T05:06:59.344Z,30.5
2018-12-22T05:07:48.544Z,30.4
2018-12-22T05:08:39.231Z,30.3
2018-12-22T05:09:29.334Z,30.3
2018-12-22T05:10:19.151Z,30.2
2018-12-22T05:11:09.171Z,30.1
2018-12-22T05:11:59.963Z,30.1
2018-12-22T05:12:48.031Z,30
2018-12-22T05:13:39.821Z,29.9
2018-12-22T05:14:29.673Z,29.8
2018-12-22T05:15:19.898Z,29.8
2018-12-22T05:16:09.699Z,29.7
2018-12-22T05:16:59.961Z,29.6
2018-12-22T05:17:49.455Z,29.6
2018-12-22T05:18:38.958Z,29.6
2018-12-22T05:19:29.313Z,29.4
2018-12-22T05:20:22.013Z,29.4
2018-12-22T05:21:10.241Z,29.4
2018-12-22T05:21:59.775Z,29.3
2018-12-22T05:22:49.581Z,29.3
2018-12-22T05:23:40.181Z,29.2
2018-12-22T05:24:29.965Z,29.2
2018-12-22T05:25:19.704Z,29.1
2018-12-22T05:26:09.744Z,29.1
2018-12-22T05:27:00.085Z,29
2018-12-22T05:27:50.128Z,28.9
2018-12-22T05:28:40.185Z,28.9
2018-12-22T05:29:29.966Z,28.9
2018-12-22T05:30:20.836Z,28.8
2018-12-22T05:31:10.104Z,28.8
2018-12-22T05:32:00.747Z,28.8
2018-12-22T05:32:51.167Z,28.7
2018-12-22T05:33:40.563Z,28.7
2018-12-22T05:34:31.304Z,28.6
2018-12-22T05:35:20.544Z,28.6
2018-12-22T05:36:10.684Z,28.6
2018-12-22T05:37:01.359Z,28.5
2018-12-22T05:37:50.806Z,28.5
2018-12-22T05:38:39.498Z,28.4
2018-12-22T05:39:31.606Z,28.4
2018-12-22T05:40:21.274Z,28.4
2018-12-22T05:41:11.326Z,28.3
2018-12-22T05:42:00.927Z,28.3
2018-12-22T05:42:51.414Z,28.3
2018-12-22T05:43:40.985Z,28.3
2018-12-22T05:44:31.268Z,28.2
2018-12-22T05:45:21.593Z,28.1
2018-12-22T05:46:11.145Z,28.1
2018-12-22T05:47:01.750Z,28.1
2018-12-22T05:47:51.575Z,28
2018-12-22T05:48:41.555Z,27.9
2018-12-22T05:49:30.772Z,27.9
2018-12-22T05:52:01.498Z,27.8
2018-12-22T05:52:52.072Z,27.8
2018-12-22T05:53:41.885Z,27.7
2018-12-22T05:54:32.526Z,27.7
2018-12-22T05:55:22.332Z,27.6
2018-12-22T05:56:12.960Z,27.6
2018-12-22T05:57:01.850Z,27.6
2018-12-22T05:57:52.428Z,27.5
2018-12-22T05:58:42.729Z,27.5
2018-12-22T05:59:32.020Z,27.5
2018-12-22T06:00:21.027Z,27.4
2018-12-22T06:01:12.020Z,27.4
2018-12-22T06:02:02.242Z,27.4
2018-12-22T06:02:52.785Z,27.3
2018-12-22T06:03:42.820Z,27.3
2018-12-22T06:04:32.636Z,27.3
2018-12-22T06:05:23.594Z,27.3
2018-12-22T06:06:12.257Z,27.3
2018-12-22T06:07:02.225Z,27.3
2018-12-22T06:07:52.864Z,27.2
2018-12-22T06:08:42.614Z,27.2
2018-12-22T06:09:33.542Z,27.1
2018-12-22T06:10:23.322Z,27.1
2018-12-22T06:11:13.059Z,27.1
2018-12-22T06:12:03.248Z,27.1
2018-12-22T06:12:52.644Z,27
2018-12-22T06:13:43.789Z,26.9
2018-12-22T06:14:33.956Z,26.9
2018-12-22T06:15:22.235Z,26.9
2018-12-22T06:16:12.359Z,26.9
2018-12-22T06:17:04.030Z,26.9
2018-12-22T06:17:53.911Z,26.8
2018-12-22T06:18:43.579Z,26.8
2018-12-22T06:19:33.364Z,26.8
2018-12-22T06:20:23.439Z,26.8
2018-12-22T06:21:14.021Z,26.7
2018-12-22T06:22:03.039Z,26.7
2018-12-22T06:22:53.358Z,26.6
2018-12-22T06:23:43.661Z,26.6
2018-12-22T06:24:33.486Z,26.6
2018-12-22T06:25:24.454Z,26.6
2018-12-22T06:26:14.128Z,26.5
2018-12-22T06:27:03.148Z,26.5
2018-12-22T06:27:54.183Z,26.4
2018-12-22T06:28:44.241Z,26.4
2018-12-22T06:29:34.705Z,26.4
2018-12-22T06:30:24.920Z,26.4
2018-12-22T06:31:13.588Z,26.3
2018-12-22T06:32:04.198Z,26.3
2018-12-22T06:32:54.269Z,26.3
2018-12-22T06:33:44.883Z,26.3
2018-12-22T06:34:34.633Z,26.3
2018-12-22T06:35:25.275Z,26.2
2018-12-22T06:36:14.485Z,26.2
2018-12-22T06:37:04.930Z,26.1
2018-12-22T06:37:54.908Z,26.1
2018-12-22T06:38:45.666Z,26.1
2018-12-22T06:39:35.513Z,26.1
2018-12-22T06:40:24.715Z,26.1
2018-12-22T06:41:15.695Z,26
2018-12-22T06:42:04.992Z,25.9
2018-12-22T06:42:55.092Z,25.9
2018-12-22T06:43:44.734Z,25.9
2018-12-22T06:44:35.918Z,25.9
2018-12-22T06:45:25.475Z,25.9
2018-12-22T06:46:15.565Z,25.9
2018-12-22T06:47:06.332Z,25.9
2018-12-22T06:47:57.811Z,25.8
2018-12-22T06:48:45.089Z,25.8
2018-12-22T06:49:36.467Z,25.8
2018-12-22T06:50:25.972Z,25.8
2018-12-22T06:51:16.079Z,25.7
2018-12-22T06:52:06.226Z,25.7
2018-12-22T06:52:55.947Z,25.7
2018-12-22T06:53:48.512Z,25.6
2018-12-22T06:54:36.316Z,25.6
2018-12-22T06:55:26.644Z,25.6
2018-12-22T06:56:15.842Z,25.6
2018-12-22T06:57:06.148Z,25.6
2018-12-22T06:57:56.291Z,25.5
2018-12-22T06:58:46.641Z,25.5
2018-12-22T06:59:36.939Z,25.4
2018-12-22T07:00:26.152Z,25.4
2018-12-22T07:01:17.420Z,25.4
2018-12-22T07:02:07.054Z,25.4
2018-12-22T07:02:56.912Z,25.4
2018-12-22T07:03:47.166Z,25.4
2018-12-22T07:04:36.519Z,25.3
2018-12-22T07:05:26.179Z,25.3
2018-12-22T07:06:17.041Z,25.3
2018-12-22T07:07:06.839Z,25.3
2018-12-22T07:07:56.628Z,25.3
2018-12-22T07:08:47.293Z,25.3
2018-12-22T07:09:37.020Z,25.2
2018-12-22T07:10:28.298Z,25.2
2018-12-22T07:11:18.236Z,25.2
2018-12-22T07:12:06.900Z,25.1
2018-12-22T07:12:55.663Z,25.1
2018-12-22T07:13:47.358Z,25.1
2018-12-22T07:14:37.095Z,25.1
2018-12-22T07:15:27.138Z,25.1
2018-12-22T07:16:17.233Z,25.1
2018-12-22T07:17:07.635Z,25
2018-12-22T07:17:57.921Z,25
2018-12-22T07:18:47.096Z,25
2018-12-22T07:19:37.988Z,24.9
2018-12-22T07:20:27.447Z,24.9
2018-12-22T07:21:17.825Z,24.9
2018-12-22T07:22:07.098Z,24.9
2018-12-22T07:22:57.950Z,24.9
2018-12-22T07:23:48.222Z,24.9
2018-12-22T07:24:37.575Z,24.8
2018-12-22T07:25:28.348Z,24.8
2018-12-22T07:26:17.812Z,24.8
2018-12-22T07:27:07.545Z,24.8
2018-12-22T07:27:58.534Z,24.8
2018-12-22T07:28:48.309Z,24.8
2018-12-22T07:29:38.085Z,24.8
2018-12-22T07:30:33.194Z,24.7
2018-12-22T07:31:18.206Z,24.7
2018-12-22T07:32:08.555Z,24.7
2018-12-22T07:33:04.692Z,24.6
2018-12-22T07:33:48.374Z,24.6
2018-12-22T07:34:38.154Z,24.6
2018-12-22T07:35:28.841Z,24.6
2018-12-22T07:36:19.356Z,24.6
2018-12-22T07:37:09.136Z,24.6
2018-12-22T07:37:58.634Z,24.5
2018-12-22T07:38:49.586Z,24.5
2018-12-22T07:39:39.119Z,24.5
2018-12-22T07:40:28.969Z,24.5
2018-12-22T07:41:18.674Z,24.6
2018-12-22T07:42:08.966Z,24.5
2018-12-22T07:42:58.529Z,24.5
2018-12-22T07:43:48.821Z,24.5
2018-12-22T07:44:39.463Z,24.5
2018-12-22T07:45:28.958Z,24.6
2018-12-22T07:46:19.303Z,24.6
2018-12-22T07:47:09.309Z,24.8
2018-12-22T07:47:59.238Z,24.9
2018-12-22T07:48:49.826Z,25
2018-12-22T07:49:38.971Z,25.1
2018-12-22T07:50:29.568Z,25.3
2018-12-22T07:51:19.701Z,25.3
2018-12-22T07:52:09.991Z,25.4
2018-12-22T07:52:59.928Z,25.6
2018-12-22T07:53:49.432Z,25.6
2018-12-22T07:54:40.034Z,25.7
2018-12-22T07:55:29.821Z,25.8
2018-12-22T07:56:20.146Z,25.9
2018-12-22T07:57:10.463Z,25.9
2018-12-22T07:58:02.515Z,25.9
2018-12-22T07:58:50.610Z,26.1
2018-12-22T07:59:40.747Z,26.1
2018-12-22T08:00:38.638Z,26.3
2018-12-22T08:01:22.853Z,26.3
2018-12-22T08:02:10.270Z,26.4
2018-12-22T08:03:01.142Z,26.4
2018-12-22T08:03:50.777Z,26.5
2018-12-22T08:04:41.054Z,26.6
2018-12-22T08:05:39.409Z,26.6
2018-12-22T08:06:20.620Z,26.7
2018-12-22T08:07:11.167Z,26.8
2018-12-22T08:07:59.890Z,26.8
2018-12-22T08:08:50.872Z,26.8
2018-12-22T08:09:41.042Z,26.8
2018-12-22T08:10:30.370Z,26.9
2018-12-22T08:11:21.172Z,26.9
2018-12-22T08:12:10.657Z,26.9
2018-12-22T08:13:01.252Z,27
2018-12-22T08:13:51.607Z,27.1
2018-12-22T08:14:40.910Z,27.1
2018-12-22T08:15:31.447Z,27.2
2018-12-22T08:16:22.067Z,27.3
2018-12-22T08:17:11.570Z,27.3
2018-12-22T08:18:01.617Z,27.3
2018-12-22T08:18:51.702Z,27.4
2018-12-22T08:19:41.799Z,27.4
2018-12-22T08:20:31.296Z,27.4
2018-12-22T08:21:21.116Z,27.4
2018-12-22T08:22:12.687Z,27.4
2018-12-22T08:23:01.864Z,27.5
2018-12-22T08:23:51.263Z,27.6
2018-12-22T08:24:41.776Z,27.6
2018-12-22T08:25:31.840Z,27.6
2018-12-22T08:26:22.773Z,27.8
2018-12-22T08:27:11.679Z,27.8
2018-12-22T08:29:42.860Z,27.9
2018-12-22T08:30:32.451Z,27.9
2018-12-22T08:31:24.633Z,27.9
2018-12-22T08:32:12.866Z,27.9
2018-12-22T08:33:03.196Z,27.9
2018-12-22T08:33:51.974Z,28
2018-12-22T08:34:42.744Z,28
2018-12-22T08:35:33.036Z,28.1
2018-12-22T08:36:21.926Z,28.1
2018-12-22T08:37:13.216Z,28.1
2018-12-22T08:38:02.412Z,28.1
2018-12-22T08:38:53.458Z,28.2
2018-12-22T08:39:43.192Z,28.2
2018-12-22T08:40:33.685Z,28.3
2018-12-22T08:41:22.655Z,28.3
2018-12-22T08:42:13.553Z,28.3
2018-12-22T08:43:03.325Z,28.4
2018-12-22T08:43:53.465Z,28.4
2018-12-22T08:44:45.635Z,28.4
2018-12-22T08:45:33.216Z,28.4
2018-12-22T08:46:23.237Z,28.4
2018-12-22T08:47:14.387Z,28.4
2018-12-22T08:48:03.908Z,28.5
2018-12-22T08:48:53.140Z,28.5
2018-12-22T08:49:43.755Z,28.5
2018-12-22T08:50:33.547Z,28.6
2018-12-22T08:51:23.589Z,28.6
2018-12-22T08:52:13.628Z,28.7
2018-12-22T08:53:03.549Z,28.7
2018-12-22T08:53:54.025Z,28.7
2018-12-22T08:54:44.372Z,28.7
2018-12-22T08:55:34.219Z,28.7
2018-12-22T08:56:24.459Z,28.8
2018-12-22T08:57:13.694Z,28.8
2018-12-22T08:58:04.983Z,28.9
2018-12-22T08:58:54.951Z,28.9
2018-12-22T08:59:44.754Z,28.9
2018-12-22T09:00:34.775Z,28.9
2018-12-22T09:16:24.310Z,29.3
2018-12-22T09:17:14.945Z,29.3
2018-12-22T09:18:04.767Z,29.3
2018-12-22T09:18:55.097Z,29.4
2018-12-22T09:19:44.877Z,29.4
2018-12-22T09:20:37.023Z,29.4
2018-12-22T09:21:25.565Z,29.4
2018-12-22T09:22:14.707Z,29.4
2018-12-22T09:23:05.363Z,29.4
2018-12-22T09:23:55.465Z,29.4
2018-12-22T09:24:45.464Z,29.4
2018-12-22T09:25:35.240Z,29.5
2018-12-22T09:26:25.673Z,29.5
2018-12-22T09:27:15.076Z,29.5
2018-12-22T09:28:05.654Z,29.6
2018-12-22T09:28:55.720Z,29.6
2018-12-22T09:29:45.489Z,29.6
2018-12-22T09:30:35.129Z,29.6
2018-12-22T09:31:24.471Z,29.6
2018-12-22T09:32:15.684Z,29.7
2018-12-22T09:33:06.119Z,29.6
2018-12-22T09:33:54.185Z,29.7
2018-12-22T09:34:45.822Z,29.8
2018-12-22T09:35:35.617Z,29.8
2018-12-22T09:36:26.217Z,29.8
2018-12-22T09:37:16.624Z,29.8
2018-12-22T09:38:05.773Z,29.8
2018-12-22T09:38:55.819Z,29.8
2018-12-22T09:39:46.470Z,29.8
2018-12-22T09:40:36.356Z,29.8
2018-12-22T09:41:25.259Z,29.9
2018-12-22T09:42:15.356Z,29.9
2018-12-22T09:43:06.179Z,29.9
2018-12-22T09:43:56.819Z,29.9
2018-12-22T09:44:46.035Z,30
2018-12-22T09:45:35.734Z,29.9
2018-12-22T09:46:25.756Z,29.9
2018-12-22T09:47:15.902Z,29.9
2018-12-22T09:48:07.026Z,30
2018-12-22T09:48:56.833Z,30
2018-12-22T09:49:46.588Z,30
2018-12-22T09:50:36.404Z,30
2018-12-22T09:51:26.970Z,30.1
2018-12-22T09:52:16.493Z,30.1
2018-12-22T09:53:07.418Z,30.1
2018-12-22T09:53:57.683Z,30.1
2018-12-22T09:54:47.455Z,30.1
2018-12-22T09:55:37.858Z,30.1
2018-12-22T09:56:27.663Z,30.1
2018-12-22T09:57:17.117Z,30.1
2018-12-22T09:58:07.440Z,30.2
2018-12-22T09:58:57.988Z,30.2
2018-12-22T09:59:47.229Z,30.2
2018-12-22T10:00:36.814Z,30.2
2018-12-22T10:01:27.422Z,30.2
2018-12-22T10:02:16.920Z,30.3
2018-12-22T10:03:08.072Z,30.3
2018-12-22T10:03:57.090Z,30.3
2018-12-22T10:04:47.158Z,30.3
2018-12-22T10:05:37.417Z,30.3
2018-12-22T10:06:27.724Z,30.4
2018-12-22T10:07:17.344Z,30.3
2018-12-22T10:08:08.635Z,30.3
2018-12-22T10:08:57.306Z,30.4
2018-12-22T10:09:48.487Z,30.3
2018-12-22T10:10:38.234Z,30.4
2018-12-22T10:11:28.018Z,30.4
2018-12-22T10:12:18.139Z,30.4
2018-12-22T10:13:08.156Z,30.4
2018-12-22T10:13:58.852Z,30.4
2018-12-22T10:14:47.969Z,30.4
2018-12-22T10:15:38.694Z,30.5
2018-12-22T10:16:29.051Z,30.5
2018-12-22T10:17:18.701Z,30.4
2018-12-22T10:18:09.444Z,30.4
2018-12-22T10:18:58.891Z,30.4
2018-12-22T10:19:49.219Z,30.4
2018-12-22T10:20:38.389Z,30.4
2018-12-22T10:21:29.800Z,30.4
2018-12-22T10:22:21.629Z,30.4
2018-12-22T10:23:09.333Z,30.4
2018-12-22T10:23:59.148Z,30.4
2018-12-22T10:24:49.250Z,30.3
2018-12-22T10:25:39.912Z,30.3
2018-12-22T10:26:30.128Z,30.2
2018-12-22T10:27:19.641Z,30.1
2018-12-22T10:28:09.730Z,30.1
2018-12-22T10:28:59.733Z,30
2018-12-22T10:29:48.725Z,30
2018-12-22T10:30:39.581Z,29.9
2018-12-22T10:31:29.975Z,29.9
2018-12-22T10:32:19.425Z,29.8
2018-12-22T10:33:09.498Z,29.8
2018-12-22T10:34:00.503Z,29.6
2018-12-22T10:34:50.246Z,29.6
2018-12-22T10:35:40.090Z,29.5
2018-12-22T10:36:30.562Z,29.4
2018-12-22T10:37:19.785Z,29.4
2018-12-22T10:38:09.565Z,29.3
2018-12-22T10:39:00.177Z,29.2
2018-12-22T10:39:50.246Z,29.1
2018-12-22T10:40:40.093Z,29.1
2018-12-22T10:41:30.072Z,29
2018-12-22T10:42:20.039Z,29
2018-12-22T10:43:09.733Z,28.9
2018-12-22T10:44:00.289Z,28.9
2018-12-22T10:44:50.642Z,28.8
2018-12-22T10:45:40.100Z,28.8
2018-12-22T10:46:30.779Z,28.8
2018-12-22T10:47:21.022Z,28.6
2018-12-22T10:48:10.422Z,28.6
2018-12-22T10:49:01.127Z,28.6
2018-12-22T10:49:51.019Z,28.6
2018-12-22T10:50:41.527Z,28.5
2018-12-22T10:51:31.679Z,28.5
2018-12-22T10:52:20.062Z,28.4
2018-12-22T10:53:10.703Z,28.4
2018-12-22T10:54:01.049Z,28.3
2018-12-22T10:54:51.308Z,28.3
2018-12-22T10:55:41.127Z,28.3
2018-12-22T10:56:30.052Z,28.3
2018-12-22T10:57:21.750Z,28.2
2018-12-22T10:58:11.033Z,28.1
2018-12-22T10:59:01.415Z,28.1
2018-12-22T10:59:51.102Z,28.1
2018-12-22T11:00:41.507Z,28
2018-12-22T11:01:32.923Z,28
2018-12-22T11:02:21.090Z,27.9
2018-12-22T11:03:11.900Z,27.9
2018-12-22T11:04:01.394Z,27.9
2018-12-22T11:06:31.557Z,27.8
2018-12-22T11:07:21.079Z,27.8
2018-12-22T11:08:11.963Z,27.7
2018-12-22T11:09:01.573Z,27.7
2018-12-22T11:09:51.254Z,27.6
2018-12-22T11:10:42.201Z,27.6
2018-12-22T11:11:31.914Z,27.6
2018-12-22T11:12:21.704Z,27.6
2018-12-22T11:13:12.056Z,27.5
2018-12-22T11:14:01.907Z,27.5
2018-12-22T11:14:52.242Z,27.4
2018-12-22T11:15:42.112Z,27.4
2018-12-22T11:16:32.096Z,27.4
2018-12-22T11:17:21.584Z,27.4
2018-12-22T11:18:11.835Z,27.3
2018-12-22T11:19:02.960Z,27.3
2018-12-22T11:19:53.042Z,27.3
2018-12-22T11:20:42.836Z,27.2
2018-12-22T11:21:33.211Z,27.2
2018-12-22T11:22:23.402Z,27.2
2018-12-22T11:23:22.322Z,27.1
2018-12-22T11:24:05.602Z,27.1
2018-12-22T11:24:53.070Z,27.1
2018-12-22T11:25:42.780Z,27.1
2018-12-22T11:26:33.668Z,27
2018-12-22T11:27:24.022Z,27
2018-12-22T11:28:13.484Z,26.9
2018-12-22T11:29:02.728Z,26.9
2018-12-22T11:29:53.618Z,26.9
2018-12-22T11:30:43.520Z,26.9
2018-12-22T11:31:42.085Z,26.9
2018-12-22T11:32:23.802Z,26.8
2018-12-22T11:33:13.398Z,26.8
2018-12-22T11:34:02.917Z,26.8
2018-12-22T11:34:53.327Z,26.8
2018-12-22T11:35:43.675Z,26.8
2018-12-22T11:36:33.040Z,26.7
2018-12-22T11:37:24.579Z,26.6
2018-12-22T11:38:13.755Z,26.6
2018-12-22T11:39:03.617Z,26.6
2018-12-22T11:39:53.832Z,26.6
2018-12-22T11:40:44.465Z,26.6
2018-12-22T11:41:33.702Z,26.5
2018-12-22T11:42:25.522Z,26.5
2018-12-22T11:43:14.804Z,26.5
2018-12-22T11:44:03.739Z,26.4
2018-12-22T11:44:54.632Z,26.4
2018-12-22T11:45:45.124Z,26.4
2018-12-22T11:46:34.849Z,26.3
2018-12-22T11:47:25.419Z,26.4
2018-12-22T11:48:15.447Z,26.3
2018-12-22T11:49:04.646Z,26.3
2018-12-22T11:49:55.106Z,26.3
2018-12-22T11:50:45.829Z,26.3
2018-12-22T11:51:34.960Z,26.2
2018-12-22T11:52:25.176Z,26.2
2018-12-22T11:53:15.273Z,26.2
2018-12-22T11:54:04.989Z,26.1
2018-12-22T11:54:55.329Z,26.1
2018-12-22T11:55:44.832Z,26.1
2018-12-22T11:56:35.243Z,26.1
2018-12-22T11:57:25.614Z,26
2018-12-22T11:58:15.796Z,26
2018-12-22T11:59:05.748Z,25.9
2018-12-22T11:59:56.246Z,25.9
2018-12-22T12:00:45.476Z,25.9
2018-12-22T12:01:34.726Z,25.9
2018-12-22T12:02:25.374Z,25.9
2018-12-22T12:03:15.996Z,25.8
2018-12-22T12:04:05.696Z,25.9
2018-12-22T12:04:56.305Z,25.8
2018-12-22T12:05:45.995Z,25.8
2018-12-22T12:06:36.733Z,25.8
2018-12-22T12:07:26.276Z,25.8
2018-12-22T12:08:15.380Z,25.8
2018-12-22T12:09:06.672Z,25.7
2018-12-22T12:09:56.073Z,25.7
2018-12-22T12:10:46.361Z,25.6
2018-12-22T12:11:35.610Z,25.6
2018-12-22T12:12:26.865Z,25.6
2018-12-22T12:13:16.748Z,25.6
2018-12-22T12:14:06.660Z,25.6
2018-12-22T12:14:56.665Z,25.5
2018-12-22T12:15:47.080Z,25.5
2018-12-22T12:16:36.805Z,25.5